Aérodrome :
LOGIN :

S'inscrire | Disclaimer

   EN    FR    IT 

 










Légende :    VFR   VFR Marginal   IFR   IFR Intensif   IFR Très Intensif
Visi : 
Plafond : 
>= 8 km
>= 3000ft
5 à 8 km
1000 à 3000 ft
1500m à 5 km
500 à 1000 ft
800 à 1500m
200 à 500 ft
< 800m
< 200 ft
Symboles :   Orages  Brouillard  Fortes neiges  Fortes précipitations  Vent > 20 kt
SIGMETs :   Divers  Orages  Givrage  Turbulence  Onde Orograph.  Cendres Volcan.







- Altitude de l'aérodrome : 267 ft
- Code IATA : CVT
- Voir les cartes d'approche


EGBE - Coventry

DERNIER METAR :
  • 281150Z 01010KT 340V050 9999 BKN010 14/13 Q0999

METARs EXPIRÉS :
  • 281120Z 02009KT 9999 BKN010 14/13 Q0999
  • 281050Z 01010KT 9999 BKN009 14/13 Q0999
  • 281020Z 03010KT 9999 BKN009 14/13 Q0999
  • 280950Z 02011KT 9999 SCT007 BKN015 14/14 Q0999
  • 280920Z 02010KT 350V050 9999 SCT007 BKN013 14/14 Q0999

TAF TAF EGBE
Valide du 28 à 12h jusqu'au 28 à 21h UTC


281108Z 2812/2821 03007KT 9999 BKN009
BECMG 2812/2814 FEW008 BKN015
PROB30
TEMPO 2812/2821 6000 -RADZ BKN008
ATIS : +44 24 7688 2668
Météo : +44 870 330 4789
Pas de NOTAMs connus pour ce terrain.



MET'MAP, la Météo Aéronautique d'un coup d'oeil ! - Copyright ORBIFLY Décembre 2007 - Disclaimer

ORBIFLY MET'MAP TEAM :

Programmation & Développement : Alexandra Zaïnal
Conception & Développement : Baudouin d'Aumeries
Co-Programmation & Développement : Marc-Olivier Méhu
Soutien technique & logistique : Manuel Goepfert

Contact : metmap@orbifly.com




SOURCES & CREDITS :

   NOAA